sensor_id;sensor_type;location;lat;lon;timestamp;P1;durP1;ratioP1;P2;durP2;ratioP2
52734;SDS011;38631;47.572;10.704;2024-01-06T00:00:25;27.02;;;13.35;;
52734;SDS011;38631;47.572;10.704;2024-01-06T00:02:50;19.65;;;9.68;;
52734;SDS011;38631;47.572;10.704;2024-01-06T00:05:15;20.98;;;10.60;;
52734;SDS011;38631;47.572;10.704;2024-01-06T00:08:01;17.25;;;8.35;;
52734;SDS011;38631;47.572;10.704;2024-01-06T00:10:27;9.73;;;5.05;;
52734;SDS011;38631;47.572;10.704;2024-01-06T00:12:53;4.80;;;3.53;;
52734;SDS011;38631;47.572;10.704;2024-01-06T00:15:18;4.78;;;3.15;;
52734;SDS011;38631;47.572;10.704;2024-01-06T00:17:43;5.38;;;3.45;;
52734;SDS011;38631;47.572;10.704;2024-01-06T00:20:09;3.33;;;2.50;;
52734;SDS011;38631;47.572;10.704;2024-01-06T00:22:35;3.92;;;2.80;;
52734;SDS011;38631;47.572;10.704;2024-01-06T00:25:01;3.55;;;2.50;;
52734;SDS011;38631;47.572;10.704;2024-01-06T00:27:26;3.80;;;2.70;;
52734;SDS011;38631;47.572;10.704;2024-01-06T00:29:51;3.35;;;2.92;;
52734;SDS011;38631;47.572;10.704;2024-01-06T00:32:17;3.50;;;2.88;;
52734;SDS011;38631;47.572;10.704;2024-01-06T00:34:42;4.63;;;2.70;;
52734;SDS011;38631;47.572;10.704;2024-01-06T00:37:08;5.97;;;3.35;;
52734;SDS011;38631;47.572;10.704;2024-01-06T00:39:33;4.55;;;3.63;;
52734;SDS011;38631;47.572;10.704;2024-01-06T00:41:58;5.10;;;3.78;;
52734;SDS011;38631;47.572;10.704;2024-01-06T00:44:24;4.80;;;3.50;;
52734;SDS011;38631;47.572;10.704;2024-01-06T00:46:49;4.35;;;3.35;;
52734;SDS011;38631;47.572;10.704;2024-01-06T00:49:14;5.22;;;4.00;;
52734;SDS011;38631;47.572;10.704;2024-01-06T00:51:40;4.53;;;3.50;;
52734;SDS011;38631;47.572;10.704;2024-01-06T00:54:05;4.38;;;3.45;;
52734;SDS011;38631;47.572;10.704;2024-01-06T00:56:31;7.03;;;3.72;;
52734;SDS011;38631;47.572;10.704;2024-01-06T00:58:56;7.57;;;4.72;;
52734;SDS011;38631;47.572;10.704;2024-01-06T01:01:21;7.65;;;4.97;;
52734;SDS011;38631;47.572;10.704;2024-01-06T01:03:47;8.20;;;4.60;;
52734;SDS011;38631;47.572;10.704;2024-01-06T01:06:14;7.45;;;4.45;;
52734;SDS011;38631;47.572;10.704;2024-01-06T01:08:40;7.70;;;4.47;;
52734;SDS011;38631;47.572;10.704;2024-01-06T01:11:05;10.55;;;5.75;;
52734;SDS011;38631;47.572;10.704;2024-01-06T01:13:31;12.32;;;6.25;;
52734;SDS011;38631;47.572;10.704;2024-01-06T01:15:56;7.00;;;4.30;;
52734;SDS011;38631;47.572;10.704;2024-01-06T01:18:21;6.95;;;4.65;;
52734;SDS011;38631;47.572;10.704;2024-01-06T01:20:48;8.30;;;5.20;;
52734;SDS011;38631;47.572;10.704;2024-01-06T01:23:14;9.25;;;5.50;;
52734;SDS011;38631;47.572;10.704;2024-01-06T01:25:39;9.57;;;5.90;;
52734;SDS011;38631;47.572;10.704;2024-01-06T01:28:04;8.70;;;6.00;;
52734;SDS011;38631;47.572;10.704;2024-01-06T01:30:30;8.63;;;5.43;;
52734;SDS011;38631;47.572;10.704;2024-01-06T01:32:57;9.82;;;4.90;;
52734;SDS011;38631;47.572;10.704;2024-01-06T01:35:22;7.75;;;5.38;;
52734;SDS011;38631;47.572;10.704;2024-01-06T01:37:48;10.20;;;6.22;;
52734;SDS011;38631;47.572;10.704;2024-01-06T01:40:14;13.57;;;6.85;;
52734;SDS011;38631;47.572;10.704;2024-01-06T01:42:41;15.00;;;9.45;;
52734;SDS011;38631;47.572;10.704;2024-01-06T01:45:07;18.65;;;10.27;;
52734;SDS011;38631;47.572;10.704;2024-01-06T01:47:33;27.17;;;12.40;;
52734;SDS011;38631;47.572;10.704;2024-01-06T01:49:58;20.30;;;10.32;;
52734;SDS011;38631;47.572;10.704;2024-01-06T01:52:25;19.85;;;11.00;;
52734;SDS011;38631;47.572;10.704;2024-01-06T01:54:52;26.27;;;12.55;;
52734;SDS011;38631;47.572;10.704;2024-01-06T01:57:20;29.58;;;14.20;;
52734;SDS011;38631;47.572;10.704;2024-01-06T01:59:48;34.20;;;18.27;;
52734;SDS011;38631;47.572;10.704;2024-01-06T02:02:14;35.42;;;18.42;;
52734;SDS011;38631;47.572;10.704;2024-01-06T02:04:40;34.85;;;17.42;;
52734;SDS011;38631;47.572;10.704;2024-01-06T02:07:06;36.42;;;17.13;;
52734;SDS011;38631;47.572;10.704;2024-01-06T02:09:31;24.38;;;13.32;;
52734;SDS011;38631;47.572;10.704;2024-01-06T02:11:57;21.30;;;12.85;;
52734;SDS011;38631;47.572;10.704;2024-01-06T02:14:23;18.67;;;9.90;;
52734;SDS011;38631;47.572;10.704;2024-01-06T02:16:48;21.48;;;11.02;;
52734;SDS011;38631;47.572;10.704;2024-01-06T02:19:13;15.18;;;8.93;;
52734;SDS011;38631;47.572;10.704;2024-01-06T02:21:42;13.73;;;8.07;;
52734;SDS011;38631;47.572;10.704;2024-01-06T02:24:09;11.63;;;7.47;;
52734;SDS011;38631;47.572;10.704;2024-01-06T02:26:34;9.40;;;5.85;;
52734;SDS011;38631;47.572;10.704;2024-01-06T02:29:00;11.10;;;6.07;;
52734;SDS011;38631;47.572;10.704;2024-01-06T02:31:26;8.80;;;5.18;;
52734;SDS011;38631;47.572;10.704;2024-01-06T02:33:52;8.05;;;4.82;;
52734;SDS011;38631;47.572;10.704;2024-01-06T02:36:19;6.57;;;4.38;;
52734;SDS011;38631;47.572;10.704;2024-01-06T02:38:44;6.72;;;4.20;;
52734;SDS011;38631;47.572;10.704;2024-01-06T02:41:09;5.85;;;3.75;;
52734;SDS011;38631;47.572;10.704;2024-01-06T02:43:35;4.93;;;3.72;;
52734;SDS011;38631;47.572;10.704;2024-01-06T02:46:00;4.65;;;3.45;;
52734;SDS011;38631;47.572;10.704;2024-01-06T02:48:26;5.35;;;3.63;;
52734;SDS011;38631;47.572;10.704;2024-01-06T02:50:51;4.13;;;2.67;;
52734;SDS011;38631;47.572;10.704;2024-01-06T02:53:17;6.70;;;3.80;;
52734;SDS011;38631;47.572;10.704;2024-01-06T02:55:42;5.32;;;3.70;;
52734;SDS011;38631;47.572;10.704;2024-01-06T02:58:07;6.30;;;4.13;;
52734;SDS011;38631;47.572;10.704;2024-01-06T03:00:33;11.18;;;5.90;;
52734;SDS011;38631;47.572;10.704;2024-01-06T03:02:59;11.88;;;6.30;;
52734;SDS011;38631;47.572;10.704;2024-01-06T03:05:24;15.68;;;7.18;;
52734;SDS011;38631;47.572;10.704;2024-01-06T03:07:49;10.45;;;6.30;;
52734;SDS011;38631;47.572;10.704;2024-01-06T03:10:15;12.50;;;6.07;;
52734;SDS011;38631;47.572;10.704;2024-01-06T03:12:41;11.35;;;5.85;;
52734;SDS011;38631;47.572;10.704;2024-01-06T03:15:06;9.95;;;5.45;;
52734;SDS011;38631;47.572;10.704;2024-01-06T03:17:32;7.50;;;4.30;;
52734;SDS011;38631;47.572;10.704;2024-01-06T03:19:57;9.20;;;4.90;;
52734;SDS011;38631;47.572;10.704;2024-01-06T03:22:22;8.20;;;4.68;;
52734;SDS011;38631;47.572;10.704;2024-01-06T03:24:48;6.80;;;4.25;;
52734;SDS011;38631;47.572;10.704;2024-01-06T03:27:13;7.80;;;4.63;;
52734;SDS011;38631;47.572;10.704;2024-01-06T03:29:39;6.00;;;4.03;;
52734;SDS011;38631;47.572;10.704;2024-01-06T03:32:04;6.00;;;4.13;;
52734;SDS011;38631;47.572;10.704;2024-01-06T03:34:30;6.25;;;3.72;;
52734;SDS011;38631;47.572;10.704;2024-01-06T03:36:55;4.90;;;3.67;;
52734;SDS011;38631;47.572;10.704;2024-01-06T03:39:21;5.55;;;3.92;;
52734;SDS011;38631;47.572;10.704;2024-01-06T03:41:47;6.45;;;4.60;;
52734;SDS011;38631;47.572;10.704;2024-01-06T03:46:49;6.55;;;4.65;;
52734;SDS011;38631;47.572;10.704;2024-01-06T03:49:14;6.38;;;4.57;;
52734;SDS011;38631;47.572;10.704;2024-01-06T03:51:40;7.25;;;4.85;;
52734;SDS011;38631;47.572;10.704;2024-01-06T03:54:05;7.72;;;4.60;;
52734;SDS011;38631;47.572;10.704;2024-01-06T03:56:30;5.63;;;4.28;;
52734;SDS011;38631;47.572;10.704;2024-01-06T03:58:56;6.40;;;4.25;;
52734;SDS011;38631;47.572;10.704;2024-01-06T04:01:21;6.88;;;4.75;;
52734;SDS011;38631;47.572;10.704;2024-01-06T04:03:47;6.15;;;4.47;;
52734;SDS011;38631;47.572;10.704;2024-01-06T04:06:12;4.80;;;3.60;;
52734;SDS011;38631;47.572;10.704;2024-01-06T04:08:39;5.47;;;3.60;;
52734;SDS011;38631;47.572;10.704;2024-01-06T04:11:06;10.75;;;5.40;;
52734;SDS011;38631;47.572;10.704;2024-01-06T04:13:31;13.30;;;7.18;;
52734;SDS011;38631;47.572;10.704;2024-01-06T04:15:56;10.90;;;5.43;;
52734;SDS011;38631;47.572;10.704;2024-01-06T04:18:22;8.55;;;4.15;;
52734;SDS011;38631;47.572;10.704;2024-01-06T04:20:47;4.78;;;3.17;;
52734;SDS011;38631;47.572;10.704;2024-01-06T04:23:13;6.80;;;3.50;;
52734;SDS011;38631;47.572;10.704;2024-01-06T04:25:38;7.53;;;4.10;;
52734;SDS011;38631;47.572;10.704;2024-01-06T04:28:04;5.45;;;3.20;;
52734;SDS011;38631;47.572;10.704;2024-01-06T04:30:29;6.65;;;4.07;;
52734;SDS011;38631;47.572;10.704;2024-01-06T04:32:54;3.88;;;2.90;;
52734;SDS011;38631;47.572;10.704;2024-01-06T04:35:40;3.03;;;2.28;;
52734;SDS011;38631;47.572;10.704;2024-01-06T04:38:05;3.97;;;2.55;;
52734;SDS011;38631;47.572;10.704;2024-01-06T04:40:31;3.75;;;2.40;;
52734;SDS011;38631;47.572;10.704;2024-01-06T04:42:57;4.22;;;2.35;;
52734;SDS011;38631;47.572;10.704;2024-01-06T04:45:22;3.60;;;2.35;;
52734;SDS011;38631;47.572;10.704;2024-01-06T04:47:49;8.30;;;5.07;;
52734;SDS011;38631;47.572;10.704;2024-01-06T04:50:15;5.57;;;3.63;;
52734;SDS011;38631;47.572;10.704;2024-01-06T04:52:40;6.97;;;4.55;;
52734;SDS011;38631;47.572;10.704;2024-01-06T04:55:06;4.30;;;3.05;;
52734;SDS011;38631;47.572;10.704;2024-01-06T04:57:32;3.08;;;2.00;;
52734;SDS011;38631;47.572;10.704;2024-01-06T04:59:57;2.67;;;1.92;;
52734;SDS011;38631;47.572;10.704;2024-01-06T05:02:23;2.50;;;1.80;;
52734;SDS011;38631;47.572;10.704;2024-01-06T05:04:49;3.13;;;1.67;;
52734;SDS011;38631;47.572;10.704;2024-01-06T05:07:14;2.60;;;2.13;;
52734;SDS011;38631;47.572;10.704;2024-01-06T05:09:40;2.72;;;1.90;;
52734;SDS011;38631;47.572;10.704;2024-01-06T05:12:05;2.25;;;1.77;;
52734;SDS011;38631;47.572;10.704;2024-01-06T05:14:30;1.73;;;1.50;;
52734;SDS011;38631;47.572;10.704;2024-01-06T05:16:56;2.33;;;1.90;;
52734;SDS011;38631;47.572;10.704;2024-01-06T05:19:21;2.75;;;2.25;;
52734;SDS011;38631;47.572;10.704;2024-01-06T05:21:47;2.58;;;1.85;;
52734;SDS011;38631;47.572;10.704;2024-01-06T05:24:13;2.88;;;2.13;;
52734;SDS011;38631;47.572;10.704;2024-01-06T05:26:38;2.20;;;1.63;;
52734;SDS011;38631;47.572;10.704;2024-01-06T05:29:03;2.60;;;2.00;;
52734;SDS011;38631;47.572;10.704;2024-01-06T05:31:29;2.30;;;1.65;;
52734;SDS011;38631;47.572;10.704;2024-01-06T05:33:54;2.67;;;1.85;;
52734;SDS011;38631;47.572;10.704;2024-01-06T05:36:19;2.70;;;1.98;;
52734;SDS011;38631;47.572;10.704;2024-01-06T05:38:45;1.75;;;1.20;;
52734;SDS011;38631;47.572;10.704;2024-01-06T05:41:10;4.13;;;1.60;;
52734;SDS011;38631;47.572;10.704;2024-01-06T05:43:36;2.13;;;1.58;;
52734;SDS011;38631;47.572;10.704;2024-01-06T05:46:01;2.42;;;1.60;;
52734;SDS011;38631;47.572;10.704;2024-01-06T05:48:26;1.98;;;1.60;;
52734;SDS011;38631;47.572;10.704;2024-01-06T05:50:52;2.10;;;1.58;;
52734;SDS011;38631;47.572;10.704;2024-01-06T05:53:17;2.92;;;1.52;;
52734;SDS011;38631;47.572;10.704;2024-01-06T05:55:43;2.75;;;1.80;;
52734;SDS011;38631;47.572;10.704;2024-01-06T05:58:09;2.33;;;1.67;;
52734;SDS011;38631;47.572;10.704;2024-01-06T06:00:34;1.98;;;1.42;;
52734;SDS011;38631;47.572;10.704;2024-01-06T06:03:00;1.98;;;1.20;;
52734;SDS011;38631;47.572;10.704;2024-01-06T06:05:25;1.67;;;1.30;;
52734;SDS011;38631;47.572;10.704;2024-01-06T06:07:51;1.67;;;1.20;;
52734;SDS011;38631;47.572;10.704;2024-01-06T06:10:17;2.75;;;1.20;;
52734;SDS011;38631;47.572;10.704;2024-01-06T06:12:43;2.10;;;1.50;;
52734;SDS011;38631;47.572;10.704;2024-01-06T06:15:09;2.00;;;1.35;;
52734;SDS011;38631;47.572;10.704;2024-01-06T06:17:35;1.55;;;1.23;;
52734;SDS011;38631;47.572;10.704;2024-01-06T06:20:00;1.65;;;1.23;;
52734;SDS011;38631;47.572;10.704;2024-01-06T06:22:26;1.42;;;1.10;;
52734;SDS011;38631;47.572;10.704;2024-01-06T06:24:55;1.67;;;1.17;;
52734;SDS011;38631;47.572;10.704;2024-01-06T06:27:24;1.20;;;0.95;;
52734;SDS011;38631;47.572;10.704;2024-01-06T06:29:51;1.42;;;1.05;;
52734;SDS011;38631;47.572;10.704;2024-01-06T06:32:17;1.80;;;1.25;;
52734;SDS011;38631;47.572;10.704;2024-01-06T06:34:42;1.95;;;1.30;;
52734;SDS011;38631;47.572;10.704;2024-01-06T06:37:08;1.60;;;1.10;;
52734;SDS011;38631;47.572;10.704;2024-01-06T06:39:33;1.40;;;1.10;;
52734;SDS011;38631;47.572;10.704;2024-01-06T06:42:00;1.77;;;1.38;;
52734;SDS011;38631;47.572;10.704;2024-01-06T06:44:26;1.88;;;1.48;;
52734;SDS011;38631;47.572;10.704;2024-01-06T06:46:52;1.90;;;1.45;;
52734;SDS011;38631;47.572;10.704;2024-01-06T06:49:17;1.92;;;1.50;;
52734;SDS011;38631;47.572;10.704;2024-01-06T06:51:42;2.53;;;1.92;;
52734;SDS011;38631;47.572;10.704;2024-01-06T06:54:12;3.27;;;2.50;;
52734;SDS011;38631;47.572;10.704;2024-01-06T06:56:38;3.83;;;2.38;;
52734;SDS011;38631;47.572;10.704;2024-01-06T06:59:03;2.75;;;1.70;;
52734;SDS011;38631;47.572;10.704;2024-01-06T07:01:28;2.10;;;1.60;;
52734;SDS011;38631;47.572;10.704;2024-01-06T07:03:54;2.20;;;1.85;;
52734;SDS011;38631;47.572;10.704;2024-01-06T07:06:19;3.92;;;2.30;;
52734;SDS011;38631;47.572;10.704;2024-01-06T07:08:45;3.45;;;2.45;;
52734;SDS011;38631;47.572;10.704;2024-01-06T07:11:10;4.97;;;3.20;;
52734;SDS011;38631;47.572;10.704;2024-01-06T07:13:36;7.47;;;4.10;;
52734;SDS011;38631;47.572;10.704;2024-01-06T07:16:02;5.35;;;3.90;;
52734;SDS011;38631;47.572;10.704;2024-01-06T07:18:27;5.32;;;4.55;;
52734;SDS011;38631;47.572;10.704;2024-01-06T07:20:53;6.20;;;3.78;;
52734;SDS011;38631;47.572;10.704;2024-01-06T07:23:18;5.82;;;4.20;;
52734;SDS011;38631;47.572;10.704;2024-01-06T07:25:44;6.80;;;4.38;;
52734;SDS011;38631;47.572;10.704;2024-01-06T07:28:09;5.47;;;3.60;;
52734;SDS011;38631;47.572;10.704;2024-01-06T07:30:35;5.07;;;3.63;;
52734;SDS011;38631;47.572;10.704;2024-01-06T07:33:00;4.35;;;3.20;;
52734;SDS011;38631;47.572;10.704;2024-01-06T07:35:25;3.75;;;2.88;;
52734;SDS011;38631;47.572;10.704;2024-01-06T07:37:51;4.57;;;2.42;;
52734;SDS011;38631;47.572;10.704;2024-01-06T07:40:17;5.93;;;3.70;;
52734;SDS011;38631;47.572;10.704;2024-01-06T07:42:43;13.15;;;7.10;;
52734;SDS011;38631;47.572;10.704;2024-01-06T07:45:09;13.38;;;8.45;;
52734;SDS011;38631;47.572;10.704;2024-01-06T07:47:35;11.38;;;7.05;;
52734;SDS011;38631;47.572;10.704;2024-01-06T07:50:00;6.25;;;4.65;;
52734;SDS011;38631;47.572;10.704;2024-01-06T07:52:27;7.03;;;3.85;;
52734;SDS011;38631;47.572;10.704;2024-01-06T07:54:52;4.50;;;3.33;;
52734;SDS011;38631;47.572;10.704;2024-01-06T07:57:19;7.22;;;3.30;;
52734;SDS011;38631;47.572;10.704;2024-01-06T07:59:45;3.33;;;2.90;;
52734;SDS011;38631;47.572;10.704;2024-01-06T08:02:10;3.72;;;3.00;;
52734;SDS011;38631;47.572;10.704;2024-01-06T08:04:36;4.63;;;3.17;;
52734;SDS011;38631;47.572;10.704;2024-01-06T08:07:01;3.90;;;3.10;;
52734;SDS011;38631;47.572;10.704;2024-01-06T08:09:27;4.03;;;3.08;;
52734;SDS011;38631;47.572;10.704;2024-01-06T08:11:52;5.05;;;3.45;;
52734;SDS011;38631;47.572;10.704;2024-01-06T08:14:18;4.35;;;3.15;;
52734;SDS011;38631;47.572;10.704;2024-01-06T08:16:43;4.30;;;3.25;;
52734;SDS011;38631;47.572;10.704;2024-01-06T08:19:09;4.50;;;3.42;;
52734;SDS011;38631;47.572;10.704;2024-01-06T08:21:36;6.70;;;4.43;;
52734;SDS011;38631;47.572;10.704;2024-01-06T08:24:02;7.07;;;5.65;;
52734;SDS011;38631;47.572;10.704;2024-01-06T08:26:28;8.02;;;5.95;;
52734;SDS011;38631;47.572;10.704;2024-01-06T08:28:53;9.38;;;7.05;;
52734;SDS011;38631;47.572;10.704;2024-01-06T08:31:19;9.73;;;6.20;;
52734;SDS011;38631;47.572;10.704;2024-01-06T08:33:44;9.48;;;6.20;;
52734;SDS011;38631;47.572;10.704;2024-01-06T08:36:10;8.73;;;6.40;;
52734;SDS011;38631;47.572;10.704;2024-01-06T08:38:36;7.60;;;5.75;;
52734;SDS011;38631;47.572;10.704;2024-01-06T08:41:01;6.70;;;5.00;;
52734;SDS011;38631;47.572;10.704;2024-01-06T08:43:27;8.13;;;5.75;;
52734;SDS011;38631;47.572;10.704;2024-01-06T08:45:52;11.23;;;6.15;;
52734;SDS011;38631;47.572;10.704;2024-01-06T08:48:18;21.10;;;11.02;;
52734;SDS011;38631;47.572;10.704;2024-01-06T08:50:43;13.15;;;7.20;;
52734;SDS011;38631;47.572;10.704;2024-01-06T08:53:10;10.52;;;6.18;;
52734;SDS011;38631;47.572;10.704;2024-01-06T08:55:36;10.82;;;7.13;;
52734;SDS011;38631;47.572;10.704;2024-01-06T08:58:01;8.55;;;5.28;;
52734;SDS011;38631;47.572;10.704;2024-01-06T09:00:27;8.98;;;5.63;;
52734;SDS011;38631;47.572;10.704;2024-01-06T09:02:52;7.35;;;3.58;;
52734;SDS011;38631;47.572;10.704;2024-01-06T09:05:18;5.85;;;3.97;;
52734;SDS011;38631;47.572;10.704;2024-01-06T09:07:43;5.28;;;4.38;;
52734;SDS011;38631;47.572;10.704;2024-01-06T09:10:14;6.60;;;4.68;;
52734;SDS011;38631;47.572;10.704;2024-01-06T09:12:39;11.25;;;7.90;;
52734;SDS011;38631;47.572;10.704;2024-01-06T09:15:04;5.05;;;3.88;;
52734;SDS011;38631;47.572;10.704;2024-01-06T09:17:30;6.38;;;4.53;;
52734;SDS011;38631;47.572;10.704;2024-01-06T09:19:56;7.15;;;4.60;;
52734;SDS011;38631;47.572;10.704;2024-01-06T09:22:21;8.32;;;4.80;;
52734;SDS011;38631;47.572;10.704;2024-01-06T09:24:48;11.45;;;5.07;;
52734;SDS011;38631;47.572;10.704;2024-01-06T09:27:14;12.02;;;4.75;;
52734;SDS011;38631;47.572;10.704;2024-01-06T09:29:40;9.98;;;5.30;;
52734;SDS011;38631;47.572;10.704;2024-01-06T09:32:06;12.57;;;6.00;;
52734;SDS011;38631;47.572;10.704;2024-01-06T09:34:32;9.43;;;5.05;;
52734;SDS011;38631;47.572;10.704;2024-01-06T09:36:57;7.43;;;3.58;;
52734;SDS011;38631;47.572;10.704;2024-01-06T09:39:22;7.18;;;3.40;;
52734;SDS011;38631;47.572;10.704;2024-01-06T09:41:48;7.18;;;4.68;;
52734;SDS011;38631;47.572;10.704;2024-01-06T09:44:15;8.32;;;6.22;;
52734;SDS011;38631;47.572;10.704;2024-01-06T09:46:42;8.63;;;6.50;;
52734;SDS011;38631;47.572;10.704;2024-01-06T09:49:08;7.80;;;6.07;;
52734;SDS011;38631;47.572;10.704;2024-01-06T09:51:35;6.65;;;4.95;;
52734;SDS011;38631;47.572;10.704;2024-01-06T09:56:34;5.57;;;2.93;;
52734;SDS011;38631;47.572;10.704;2024-01-06T09:58:59;13.25;;;8.52;;
52734;SDS011;38631;47.572;10.704;2024-01-06T10:01:31;18.38;;;10.20;;
52734;SDS011;38631;47.572;10.704;2024-01-06T10:03:59;11.52;;;7.50;;
52734;SDS011;38631;47.572;10.704;2024-01-06T10:06:33;15.00;;;10.32;;
52734;SDS011;38631;47.572;10.704;2024-01-06T10:09:01;42.92;;;28.90;;
52734;SDS011;38631;47.572;10.704;2024-01-06T10:11:27;17.73;;;12.32;;
52734;SDS011;38631;47.572;10.704;2024-01-06T10:13:52;17.08;;;11.35;;
52734;SDS011;38631;47.572;10.704;2024-01-06T10:16:19;11.40;;;9.25;;
52734;SDS011;38631;47.572;10.704;2024-01-06T10:18:45;13.30;;;8.88;;
52734;SDS011;38631;47.572;10.704;2024-01-06T10:21:11;13.82;;;10.45;;
52734;SDS011;38631;47.572;10.704;2024-01-06T10:23:37;16.42;;;11.10;;
52734;SDS011;38631;47.572;10.704;2024-01-06T10:26:02;28.27;;;14.15;;
52734;SDS011;38631;47.572;10.704;2024-01-06T10:28:28;36.03;;;15.00;;
52734;SDS011;38631;47.572;10.704;2024-01-06T10:30:57;27.30;;;12.85;;
52734;SDS011;38631;47.572;10.704;2024-01-06T10:33:23;15.90;;;8.82;;
52734;SDS011;38631;47.572;10.704;2024-01-06T10:35:49;16.88;;;10.20;;
52734;SDS011;38631;47.572;10.704;2024-01-06T10:38:15;19.50;;;13.35;;
52734;SDS011;38631;47.572;10.704;2024-01-06T10:41:00;11.77;;;8.02;;
52734;SDS011;38631;47.572;10.704;2024-01-06T10:43:31;11.07;;;8.55;;
52734;SDS011;38631;47.572;10.704;2024-01-06T10:46:02;9.32;;;7.05;;
52734;SDS011;38631;47.572;10.704;2024-01-06T10:48:32;7.43;;;5.65;;
52734;SDS011;38631;47.572;10.704;2024-01-06T10:50:59;8.82;;;5.53;;
52734;SDS011;38631;47.572;10.704;2024-01-06T10:53:26;8.80;;;5.45;;
52734;SDS011;38631;47.572;10.704;2024-01-06T10:55:52;8.98;;;6.38;;
52734;SDS011;38631;47.572;10.704;2024-01-06T10:58:18;9.77;;;6.57;;
52734;SDS011;38631;47.572;10.704;2024-01-06T11:00:44;8.70;;;6.25;;
52734;SDS011;38631;47.572;10.704;2024-01-06T11:03:10;13.88;;;6.97;;
52734;SDS011;38631;47.572;10.704;2024-01-06T11:05:38;34.65;;;13.40;;
52734;SDS011;38631;47.572;10.704;2024-01-06T11:08:06;20.25;;;9.23;;
52734;SDS011;38631;47.572;10.704;2024-01-06T11:10:32;11.23;;;6.90;;
52734;SDS011;38631;47.572;10.704;2024-01-06T11:15:57;8.88;;;6.10;;
52734;SDS011;38631;47.572;10.704;2024-01-06T11:18:34;9.13;;;6.45;;
52734;SDS011;38631;47.572;10.704;2024-01-06T11:21:20;8.38;;;6.10;;
52734;SDS011;38631;47.572;10.704;2024-01-06T11:24:17;8.52;;;6.47;;
52734;SDS011;38631;47.572;10.704;2024-01-06T11:27:08;8.98;;;6.40;;
52734;SDS011;38631;47.572;10.704;2024-01-06T11:29:55;9.02;;;6.47;;
52734;SDS011;38631;47.572;10.704;2024-01-06T11:33:00;9.85;;;7.30;;
52734;SDS011;38631;47.572;10.704;2024-01-06T11:35:36;10.00;;;7.45;;
52734;SDS011;38631;47.572;10.704;2024-01-06T11:38:06;8.55;;;6.40;;
52734;SDS011;38631;47.572;10.704;2024-01-06T11:40:39;7.72;;;5.60;;
52734;SDS011;38631;47.572;10.704;2024-01-06T11:43:51;7.68;;;5.50;;
52734;SDS011;38631;47.572;10.704;2024-01-06T11:46:34;8.40;;;6.53;;
52734;SDS011;38631;47.572;10.704;2024-01-06T11:49:28;10.48;;;7.43;;
52734;SDS011;38631;47.572;10.704;2024-01-06T11:52:22;9.15;;;6.28;;
52734;SDS011;38631;47.572;10.704;2024-01-06T11:55:04;8.20;;;5.78;;
52734;SDS011;38631;47.572;10.704;2024-01-06T11:57:37;11.40;;;7.55;;
52734;SDS011;38631;47.572;10.704;2024-01-06T12:00:07;10.05;;;6.47;;
52734;SDS011;38631;47.572;10.704;2024-01-06T12:05:33;9.27;;;6.40;;
52734;SDS011;38631;47.572;10.704;2024-01-06T12:08:04;10.85;;;7.20;;
52734;SDS011;38631;47.572;10.704;2024-01-06T12:10:33;11.90;;;7.57;;
52734;SDS011;38631;47.572;10.704;2024-01-06T12:13:19;10.05;;;6.57;;
52734;SDS011;38631;47.572;10.704;2024-01-06T12:16:08;13.68;;;7.75;;
52734;SDS011;38631;47.572;10.704;2024-01-06T12:18:53;9.70;;;6.38;;
52734;SDS011;38631;47.572;10.704;2024-01-06T12:21:23;8.68;;;6.05;;
52734;SDS011;38631;47.572;10.704;2024-01-06T12:24:37;9.65;;;6.75;;
52734;SDS011;38631;47.572;10.704;2024-01-06T12:27:42;13.38;;;7.95;;
52734;SDS011;38631;47.572;10.704;2024-01-06T12:30:30;9.73;;;6.00;;
52734;SDS011;38631;47.572;10.704;2024-01-06T12:33:17;8.25;;;5.63;;
52734;SDS011;38631;47.572;10.704;2024-01-06T12:35:59;8.88;;;6.25;;
52734;SDS011;38631;47.572;10.704;2024-01-06T12:38:29;7.53;;;5.00;;
52734;SDS011;38631;47.572;10.704;2024-01-06T12:41:02;11.23;;;6.18;;
52734;SDS011;38631;47.572;10.704;2024-01-06T12:43:29;8.85;;;6.15;;
52734;SDS011;38631;47.572;10.704;2024-01-06T12:45:57;9.23;;;5.97;;
52734;SDS011;38631;47.572;10.704;2024-01-06T12:48:23;11.70;;;6.72;;
52734;SDS011;38631;47.572;10.704;2024-01-06T12:50:49;9.07;;;5.85;;
52734;SDS011;38631;47.572;10.704;2024-01-06T12:53:15;9.93;;;6.00;;
52734;SDS011;38631;47.572;10.704;2024-01-06T12:55:42;12.02;;;6.32;;
52734;SDS011;38631;47.572;10.704;2024-01-06T12:58:15;16.15;;;9.70;;
52734;SDS011;38631;47.572;10.704;2024-01-06T13:00:41;15.70;;;8.25;;
52734;SDS011;38631;47.572;10.704;2024-01-06T13:03:07;16.83;;;8.38;;
52734;SDS011;38631;47.572;10.704;2024-01-06T13:05:33;9.68;;;5.80;;
52734;SDS011;38631;47.572;10.704;2024-01-06T13:07:59;9.32;;;5.57;;
52734;SDS011;38631;47.572;10.704;2024-01-06T13:10:24;10.23;;;5.75;;
52734;SDS011;38631;47.572;10.704;2024-01-06T13:12:50;8.77;;;5.57;;
52734;SDS011;38631;47.572;10.704;2024-01-06T13:15:16;9.35;;;5.28;;
52734;SDS011;38631;47.572;10.704;2024-01-06T13:17:42;8.45;;;5.00;;
52734;SDS011;38631;47.572;10.704;2024-01-06T13:20:07;10.23;;;5.15;;
52734;SDS011;38631;47.572;10.704;2024-01-06T13:22:33;12.07;;;7.15;;
52734;SDS011;38631;47.572;10.704;2024-01-06T13:24:59;9.45;;;6.38;;
52734;SDS011;38631;47.572;10.704;2024-01-06T13:27:25;9.25;;;6.57;;
52734;SDS011;38631;47.572;10.704;2024-01-06T13:29:54;8.93;;;5.90;;
52734;SDS011;38631;47.572;10.704;2024-01-06T13:32:19;10.30;;;6.30;;
52734;SDS011;38631;47.572;10.704;2024-01-06T13:34:47;10.00;;;5.72;;
52734;SDS011;38631;47.572;10.704;2024-01-06T13:37:12;9.95;;;6.47;;
52734;SDS011;38631;47.572;10.704;2024-01-06T13:39:37;9.35;;;6.38;;
52734;SDS011;38631;47.572;10.704;2024-01-06T13:42:03;11.50;;;7.25;;
52734;SDS011;38631;47.572;10.704;2024-01-06T13:44:29;15.48;;;9.00;;
52734;SDS011;38631;47.572;10.704;2024-01-06T13:46:55;15.48;;;9.10;;
52734;SDS011;38631;47.572;10.704;2024-01-06T13:49:21;16.83;;;10.20;;
52734;SDS011;38631;47.572;10.704;2024-01-06T13:51:47;24.15;;;13.75;;
52734;SDS011;38631;47.572;10.704;2024-01-06T13:54:14;28.13;;;14.73;;
52734;SDS011;38631;47.572;10.704;2024-01-06T13:56:40;25.10;;;14.35;;
52734;SDS011;38631;47.572;10.704;2024-01-06T13:59:05;25.63;;;13.55;;
52734;SDS011;38631;47.572;10.704;2024-01-06T14:01:31;24.40;;;14.82;;
52734;SDS011;38631;47.572;10.704;2024-01-06T14:03:57;24.08;;;12.40;;
52734;SDS011;38631;47.572;10.704;2024-01-06T14:06:25;25.27;;;14.07;;
52734;SDS011;38631;47.572;10.704;2024-01-06T14:08:56;20.48;;;12.30;;
52734;SDS011;38631;47.572;10.704;2024-01-06T14:11:23;21.80;;;11.90;;
52734;SDS011;38631;47.572;10.704;2024-01-06T14:13:50;17.52;;;10.65;;
52734;SDS011;38631;47.572;10.704;2024-01-06T14:16:16;17.20;;;9.70;;
52734;SDS011;38631;47.572;10.704;2024-01-06T14:18:42;13.65;;;7.10;;
52734;SDS011;38631;47.572;10.704;2024-01-06T14:21:09;15.75;;;8.35;;
52734;SDS011;38631;47.572;10.704;2024-01-06T14:23:36;31.92;;;14.80;;
52734;SDS011;38631;47.572;10.704;2024-01-06T14:26:17;27.85;;;13.63;;
52734;SDS011;38631;47.572;10.704;2024-01-06T14:28:45;27.40;;;14.30;;
52734;SDS011;38631;47.572;10.704;2024-01-06T14:31:12;30.70;;;14.32;;
52734;SDS011;38631;47.572;10.704;2024-01-06T14:33:38;20.15;;;11.43;;
52734;SDS011;38631;47.572;10.704;2024-01-06T14:36:04;19.60;;;12.70;;
52734;SDS011;38631;47.572;10.704;2024-01-06T14:38:30;14.02;;;8.00;;
52734;SDS011;38631;47.572;10.704;2024-01-06T14:40:55;12.40;;;6.60;;